Time;durP1;ratioP1;P1;durP2;ratioP2;P2;SDS_P1;SDS_P2;PMS_P1;PMS_P2;Temp;Humidity;BMP_temperature;BMP_pressure;BME280_temperature;BME280_humidity;BME280_pressure;Samples;Min_cycle;Max_cycle;Signal;HPM_P1;HPM_P2
2022/08/28 00:01:41;;;;;;;106.57;41.90;;;;;;;;;;6219636;28;20054;-59
2022/08/28 00:04:41;;;;;;;191.50;64.17;;;;;;;;;;6220627;28;20655;-58
2022/08/28 00:07:42;;;;;;;160.43;56.23;;;;;;;;;;6205784;28;20053;-59
2022/08/28 00:10:44;;;;;;;145.20;52.30;;;;;;;;;;6219697;28;20073;-59
2022/08/28 00:13:45;;;;;;;99.47;38.42;;;;;;;;;;6219141;28;20456;-58
2022/08/28 00:16:47;;;;;;;117.03;42.53;;;;;;;;;;6221605;28;20088;-59
2022/08/28 00:19:48;;;;;;;89.47;37.05;;;;;;;;;;6221996;28;20451;-58
2022/08/28 00:22:49;;;;;;;99.90;40.33;;;;;;;;;;6217607;28;20469;-59
2022/08/28 00:25:50;;;;;;;98.15;37.17;;;;;;;;;;6218635;28;20038;-58
2022/08/28 00:28:51;;;;;;;;;;;;;;;;;;6223285;28;20128;-59
2022/08/28 00:31:52;;;;;;;79.20;34.38;;;;;;;;;;6225915;28;20438;-59
2022/08/28 00:34:52;;;;;;;66.90;28.93;;;;;;;;;;6224763;28;20045;-58
2022/08/28 00:37:56;;;;;;;68.70;28.90;;;;;;;;;;6222411;28;20054;-58
2022/08/28 00:41:02;;;;;;;66.88;30.13;;;;;;;;;;6225309;28;20080;-59
2022/08/28 00:44:12;;;;;;;65.22;29.25;;;;;;;;;;6224385;28;20931;-58
2022/08/28 00:47:12;;;;;;;149.48;50.78;;;;;;;;;;6225608;28;20085;-59
2022/08/28 00:50:18;;;;;;;123.03;42.67;;;;;;;;;;6224531;28;20994;-58
2022/08/28 00:53:19;;;;;;;69.18;29.90;;;;;;;;;;6225911;28;20128;-59
2022/08/28 00:56:20;;;;;;;65.57;30.42;;;;;;;;;;6225270;28;20555;-59
2022/08/28 00:59:24;;;;;;;68.60;28.50;;;;;;;;;;6224206;28;20136;-57
2022/08/28 01:02:26;;;;;;;67.00;28.13;;;;;;;;;;6225179;28;20045;-58
2022/08/28 01:05:27;;;;;;;64.68;28.25;;;;;;;;;;6223236;28;20444;-58
2022/08/28 01:08:29;;;;;;;55.85;26.88;;;;;;;;;;6225319;28;20054;-58
2022/08/28 01:11:31;;;;;;;60.10;27.40;;;;;;;;;;6224919;28;20126;-59
2022/08/28 01:14:35;;;;;;;61.25;27.85;;;;;;;;;;6223490;28;20046;-58
2022/08/28 01:17:40;;;;;;;52.22;26.83;;;;;;;;;;6225605;28;20132;-59
2022/08/28 01:21:06;;;;;;;59.45;25.95;;;;;;;;;;6222660;28;20432;-57
2022/08/28 01:24:13;;;;;;;57.42;25.80;;;;;;;;;;6224695;28;20140;-59
2022/08/28 01:27:14;;;;;;;60.13;26.80;;;;;;;;;;6233000;28;21164;-58
2022/08/28 01:30:18;;;;;;;64.10;29.45;;;;;;;;;;6225239;28;20058;-59
2022/08/28 01:33:18;;;;;;;55.95;26.50;;;;;;;;;;6224471;28;20455;-58
2022/08/28 01:36:20;;;;;;;49.37;23.70;;;;;;;;;;6218971;28;20056;-58
2022/08/28 01:39:22;;;;;;;50.65;24.60;;;;;;;;;;6221576;28;20061;-59
2022/08/28 01:42:24;;;;;;;50.00;23.67;;;;;;;;;;6222415;28;20081;-58
2022/08/28 01:45:25;;;;;;;;;;;;;;;;;;6223541;28;20045;-59
2022/08/28 01:48:26;;;;;;;47.30;23.30;;;;;;;;;;6219805;28;19925;-58
2022/08/28 01:51:27;;;;;;;44.55;22.40;;;;;;;;;;6219231;28;20070;-58
2022/08/28 01:54:28;;;;;;;49.97;24.97;;;;;;;;;;6224549;28;20063;-59
2022/08/28 01:57:28;;;;;;;47.40;23.40;;;;;;;;;;6219142;28;20064;-57
2022/08/28 02:00:29;;;;;;;45.53;23.37;;;;;;;;;;6222476;28;20132;-59
2022/08/28 02:03:30;;;;;;;48.13;22.83;;;;;;;;;;6222629;28;20045;-58
2022/08/28 02:06:32;;;;;;;44.97;23.23;;;;;;;;;;6221678;28;20083;-59
2022/08/28 02:09:33;;;;;;;47.22;23.55;;;;;;;;;;6222956;28;20037;-58
2022/08/28 02:12:34;;;;;;;43.37;22.03;;;;;;;;;;6225664;28;20048;-59
2022/08/28 02:15:36;;;;;;;43.15;23.38;;;;;;;;;;6219709;28;20405;-58
2022/08/28 02:18:37;;;;;;;46.22;23.95;;;;;;;;;;6223099;28;20144;-59
2022/08/28 02:21:38;;;;;;;40.75;22.98;;;;;;;;;;6219612;28;20049;-58
2022/08/28 02:24:39;;;;;;;44.40;22.88;;;;;;;;;;6223408;28;20092;-58
2022/08/28 02:27:40;;;;;;;43.30;22.93;;;;;;;;;;6222660;28;20045;-59
2022/08/28 02:30:41;;;;;;;55.30;24.40;;;;;;;;;;6220997;28;20034;-59
2022/08/28 02:33:43;;;;;;;43.30;22.73;;;;;;;;;;6221853;28;20080;-58
2022/08/28 02:36:44;;;;;;;43.25;22.63;;;;;;;;;;6219465;28;20073;-59
2022/08/28 02:39:44;;;;;;;46.13;23.17;;;;;;;;;;6220407;28;20083;-58
2022/08/28 02:42:45;;;;;;;42.27;22.93;;;;;;;;;;6222153;28;20069;-58
2022/08/28 02:45:46;;;;;;;43.03;21.13;;;;;;;;;;6221962;28;20044;-59
2022/08/28 02:48:46;;;;;;;43.20;21.83;;;;;;;;;;6222114;28;20042;-57
2022/08/28 02:51:47;;;;;;;46.37;22.53;;;;;;;;;;6221812;28;20501;-59
2022/08/28 02:54:48;;;;;;;46.23;22.43;;;;;;;;;;6223712;28;20128;-59
2022/08/28 02:57:48;;;;;;;47.10;21.77;;;;;;;;;;6218912;28;20045;-59
2022/08/28 03:00:49;;;;;;;42.87;21.40;;;;;;;;;;6221546;28;20065;-59
2022/08/28 03:03:49;;;;;;;47.27;22.60;;;;;;;;;;6221189;28;20044;-58
2022/08/28 03:06:50;;;;;;;47.60;23.73;;;;;;;;;;6219937;28;20512;-58
2022/08/28 03:09:51;;;;;;;50.77;24.13;;;;;;;;;;6222445;28;20045;-58
2022/08/28 03:12:51;;;;;;;51.13;24.53;;;;;;;;;;6219127;28;20045;-58
2022/08/28 03:15:52;;;;;;;53.73;26.07;;;;;;;;;;6218940;28;20425;-59
2022/08/28 03:18:52;;;;;;;47.73;25.10;;;;;;;;;;6221470;28;20492;-58
2022/08/28 03:21:53;;;;;;;48.20;24.00;;;;;;;;;;6218759;28;20042;-59
2022/08/28 03:24:54;;;;;;;49.53;24.77;;;;;;;;;;6218844;28;20041;-57
2022/08/28 03:27:55;;;;;;;50.37;22.87;;;;;;;;;;6217945;28;20038;-58
2022/08/28 03:30:56;;;;;;;47.22;22.63;;;;;;;;;;6235569;28;20136;-59
2022/08/28 03:33:57;;;;;;;47.38;24.27;;;;;;;;;;6241486;28;20172;-59
2022/08/28 03:36:58;;;;;;;46.27;22.40;;;;;;;;;;6228822;28;20513;-58
2022/08/28 03:39:59;;;;;;;47.80;22.03;;;;;;;;;;6221597;28;20049;-58
2022/08/28 03:43:00;;;;;;;42.60;22.02;;;;;;;;;;6222147;28;20088;-58
2022/08/28 03:46:03;;;;;;;43.60;23.15;;;;;;;;;;6219590;28;20041;-59
2022/08/28 03:49:04;;;;;;;40.15;21.20;;;;;;;;;;6220535;28;20136;-59
2022/08/28 03:52:05;;;;;;;47.43;22.43;;;;;;;;;;6218568;28;20480;-58
2022/08/28 03:55:07;;;;;;;46.33;22.17;;;;;;;;;;6218605;28;20034;-58
2022/08/28 03:58:08;;;;;;;43.13;23.58;;;;;;;;;;6222911;28;20057;-59
2022/08/28 04:01:09;;;;;;;45.33;23.47;;;;;;;;;;6221093;28;20100;-58
2022/08/28 04:04:09;;;;;;;41.60;23.60;;;;;;;;;;6223918;28;20050;-59
2022/08/28 04:07:11;;;;;;;42.47;23.30;;;;;;;;;;6225989;28;20085;-59
2022/08/28 04:10:11;;;;;;;46.35;24.45;;;;;;;;;;6225486;28;20037;-59
2022/08/28 04:13:14;;;;;;;41.07;23.77;;;;;;;;;;6224948;28;20060;-59
2022/08/28 04:16:17;;;;;;;49.55;25.17;;;;;;;;;;6225204;28;20065;-59
2022/08/28 04:19:18;;;;;;;53.97;25.85;;;;;;;;;;6226657;28;20034;-58
2022/08/28 04:22:19;;;;;;;52.90;27.97;;;;;;;;;;6224686;28;20050;-58
2022/08/28 04:25:20;;;;;;;56.67;28.92;;;;;;;;;;6223996;28;20389;-57
2022/08/28 04:28:22;;;;;;;58.95;29.80;;;;;;;;;;6225929;28;20050;-59
2022/08/28 04:31:22;;;;;;;50.25;27.98;;;;;;;;;;6224742;28;20661;-58
2022/08/28 04:34:23;;;;;;;57.23;29.50;;;;;;;;;;6223482;28;20058;-59
2022/08/28 04:37:24;;;;;;;63.37;30.93;;;;;;;;;;6220570;28;20050;-59
2022/08/28 04:40:24;;;;;;;62.00;32.63;;;;;;;;;;6224257;28;20041;-59
2022/08/28 04:43:25;;;;;;;61.77;31.93;;;;;;;;;;6222778;28;20177;-59
2022/08/28 04:46:25;;;;;;;70.00;35.80;;;;;;;;;;6225288;28;20076;-58
2022/08/28 04:49:26;;;;;;;72.13;36.07;;;;;;;;;;6223776;28;20520;-59
2022/08/28 04:52:27;;;;;;;70.77;34.03;;;;;;;;;;6225405;28;20041;-58
2022/08/28 04:55:27;;;;;;;72.63;33.43;;;;;;;;;;6225222;28;20519;-59
2022/08/28 04:58:29;;;;;;;65.03;34.57;;;;;;;;;;6223691;28;20045;-58
2022/08/28 05:01:30;;;;;;;;;;;;;;;;;;6226668;28;20136;-58
2022/08/28 05:04:30;;;;;;;64.35;33.60;;;;;;;;;;6224485;28;19932;-58
2022/08/28 05:07:32;;;;;;;65.53;33.80;;;;;;;;;;6223515;28;20041;-58
2022/08/28 05:10:34;;;;;;;72.40;33.60;;;;;;;;;;6227471;28;20103;-58
2022/08/28 05:13:35;;;;;;;67.50;33.40;;;;;;;;;;6235275;28;20140;-58
2022/08/28 05:16:48;;;;;;;66.93;31.38;;;;;;;;;;6242942;28;20069;-57
2022/08/28 05:19:49;;;;;;;56.70;30.55;;;;;;;;;;6244368;28;20148;-57
2022/08/28 05:22:50;;;;;;;63.53;30.10;;;;;;;;;;6243876;28;20428;-59
2022/08/28 05:25:50;;;;;;;65.57;30.40;;;;;;;;;;6243084;28;20046;-58
2022/08/28 05:28:53;;;;;;;60.50;30.83;;;;;;;;;;6253047;28;20133;-58
2022/08/28 05:31:54;;;;;;;61.28;29.08;;;;;;;;;;6243966;28;20207;-58
2022/08/28 05:34:54;;;;;;;59.60;30.60;;;;;;;;;;6243873;28;20050;-58
2022/08/28 05:37:55;;;;;;;59.30;28.37;;;;;;;;;;6242565;28;20475;-58
2022/08/28 05:40:55;;;;;;;59.93;28.07;;;;;;;;;;6243427;28;20046;-59
2022/08/28 05:43:58;;;;;;;55.97;26.60;;;;;;;;;;6242200;28;20494;-57
2022/08/28 05:46:58;;;;;;;47.05;25.67;;;;;;;;;;6240349;28;20408;-56
2022/08/28 05:49:59;;;;;;;53.30;25.50;;;;;;;;;;6243829;28;20104;-57
2022/08/28 05:53:00;;;;;;;50.57;25.73;;;;;;;;;;6242088;28;20497;-58
2022/08/28 05:56:04;;;;;;;50.27;24.73;;;;;;;;;;6241184;28;20820;-58
2022/08/28 05:59:05;;;;;;;47.05;24.58;;;;;;;;;;6241482;28;20459;-58
2022/08/28 06:02:06;;;;;;;;;;;;;;;;;;6242327;28;20136;-56
2022/08/28 06:05:08;;;;;;;45.30;22.65;;;;;;;;;;6241397;28;19931;-58
2022/08/28 06:08:09;;;;;;;43.00;22.55;;;;;;;;;;6232638;28;20045;-58
2022/08/28 06:11:09;;;;;;;45.07;23.63;;;;;;;;;;6237323;28;20159;-59
2022/08/28 06:14:11;;;;;;;47.17;23.77;;;;;;;;;;6239373;28;20040;-58
2022/08/28 06:17:11;;;;;;;52.95;25.15;;;;;;;;;;6238875;28;20052;-59
2022/08/28 06:20:12;;;;;;;48.13;23.67;;;;;;;;;;6235800;28;20049;-58
2022/08/28 06:23:16;;;;;;;49.50;25.03;;;;;;;;;;6238743;28;20168;-59
2022/08/28 06:26:17;;;;;;;56.45;26.90;;;;;;;;;;6240606;28;20051;-58
2022/08/28 06:29:21;;;;;;;54.43;27.23;;;;;;;;;;6242534;28;20041;-58
2022/08/28 06:32:21;;;;;;;48.45;25.33;;;;;;;;;;6236461;28;20463;-58
2022/08/28 06:35:22;;;;;;;45.67;23.93;;;;;;;;;;6234243;28;20042;-58
2022/08/28 06:38:25;;;;;;;55.20;24.77;;;;;;;;;;6241051;28;20054;-58
2022/08/28 06:41:26;;;;;;;46.17;23.35;;;;;;;;;;6232411;28;20165;-59
2022/08/28 06:44:27;;;;;;;43.50;24.80;;;;;;;;;;6240244;28;20479;-59
2022/08/28 06:47:28;;;;;;;47.87;24.27;;;;;;;;;;6238378;28;20045;-59
2022/08/28 06:50:28;;;;;;;50.37;24.33;;;;;;;;;;6234158;28;20029;-59
2022/08/28 06:53:32;;;;;;;46.63;24.97;;;;;;;;;;6242246;28;20205;-58
2022/08/28 06:56:33;;;;;;;49.47;24.17;;;;;;;;;;6240787;28;20089;-57
2022/08/28 06:59:33;;;;;;;49.10;24.43;;;;;;;;;;6242020;28;20111;-58
2022/08/28 07:02:34;;;;;;;49.37;25.83;;;;;;;;;;6242045;28;20152;-59
2022/08/28 07:05:34;;;;;;;48.20;23.93;;;;;;;;;;6239736;28;20046;-59
2022/08/28 07:08:36;;;;;;;49.40;23.93;;;;;;;;;;6239828;28;20175;-58
2022/08/28 07:11:38;;;;;;;44.20;23.83;;;;;;;;;;6240321;28;20052;-58
2022/08/28 07:14:38;;;;;;;41.30;22.27;;;;;;;;;;6239400;28;20119;-59
2022/08/28 07:17:39;;;;;;;43.40;22.20;;;;;;;;;;6240368;28;20049;-58
2022/08/28 07:20:40;;;;;;;42.83;22.13;;;;;;;;;;6241395;28;20045;-59
2022/08/28 07:23:41;;;;;;;49.47;23.93;;;;;;;;;;6241821;28;20045;-59
2022/08/28 07:26:44;;;;;;;45.35;23.48;;;;;;;;;;6239942;28;20052;-59
2022/08/28 07:29:45;;;;;;;43.08;23.15;;;;;;;;;;6232128;28;20554;-59
2022/08/28 07:32:48;;;;;;;48.63;23.27;;;;;;;;;;6238361;28;20041;-59
2022/08/28 07:35:49;;;;;;;47.38;23.83;;;;;;;;;;6239461;28;20057;-59
2022/08/28 07:38:50;;;;;;;46.40;23.57;;;;;;;;;;6239407;28;20069;-59
2022/08/28 07:41:52;;;;;;;46.35;23.38;;;;;;;;;;6240264;28;20341;-59
2022/08/28 07:44:53;;;;;;;51.53;23.50;;;;;;;;;;6222752;28;20346;-59
2022/08/28 07:47:54;;;;;;;45.17;23.60;;;;;;;;;;6219504;28;20049;-59
2022/08/28 07:50:55;;;;;;;46.00;23.42;;;;;;;;;;6221519;28;20060;-59
2022/08/28 07:53:56;;;;;;;43.63;23.27;;;;;;;;;;6218179;28;20124;-59
2022/08/28 07:56:57;;;;;;;45.03;24.60;;;;;;;;;;6214795;28;20058;-59
2022/08/28 07:59:58;;;;;;;46.47;23.73;;;;;;;;;;6239449;28;20874;-59
2022/08/28 08:02:58;;;;;;;52.67;26.67;;;;;;;;;;6240269;28;20041;-59
2022/08/28 08:06:02;;;;;;;47.40;24.83;;;;;;;;;;6230673;28;20057;-59
2022/08/28 08:09:04;;;;;;;49.58;25.30;;;;;;;;;;6220201;28;20072;-59
2022/08/28 08:12:05;;;;;;;50.67;26.45;;;;;;;;;;6218163;28;20073;-60
2022/08/28 08:15:06;;;;;;;44.67;25.15;;;;;;;;;;6217576;28;20492;-60
2022/08/28 08:18:06;;;;;;;49.43;25.03;;;;;;;;;;6220696;28;20104;-59
2022/08/28 08:21:10;;;;;;;49.30;26.70;;;;;;;;;;6221004;28;20057;-59
2022/08/28 08:24:14;;;;;;;50.63;25.80;;;;;;;;;;6222319;28;20057;-59
2022/08/28 08:27:15;;;;;;;48.75;25.20;;;;;;;;;;6220802;28;20545;-59
2022/08/28 08:30:15;;;;;;;53.83;27.43;;;;;;;;;;6218625;28;20099;-59
2022/08/28 08:33:16;;;;;;;48.73;25.77;;;;;;;;;;6218951;28;20041;-59
2022/08/28 08:36:20;;;;;;;55.87;27.27;;;;;;;;;;6218078;28;20037;-58
2022/08/28 08:39:20;;;;;;;52.83;27.67;;;;;;;;;;6218232;28;20045;-60
2022/08/28 08:42:31;;;;;;;59.03;28.30;;;;;;;;;;6219909;28;20798;-60
2022/08/28 08:45:36;;;;;;;58.40;26.35;;;;;;;;;;6219937;28;20073;-59
2022/08/28 08:48:39;;;;;;;53.03;24.75;;;;;;;;;;6217081;28;20574;-59
2022/08/28 08:51:58;;;;;;;62.30;26.58;;;;;;;;;;6224706;28;20168;-57
2022/08/28 08:55:20;;;;;;;58.35;26.77;;;;;;;;;;6219010;28;20054;-59
2022/08/28 08:58:35;;;;;;;59.65;26.17;;;;;;;;;;6222390;28;20141;-58
2022/08/28 09:01:54;;;;;;;55.17;26.77;;;;;;;;;;6224696;28;20050;-59
2022/08/28 09:05:06;;;;;;;58.90;26.48;;;;;;;;;;6227466;28;20264;-59
2022/08/28 09:08:17;;;;;;;59.45;26.73;;;;;;;;;;6224794;28;20092;-60
2022/08/28 09:11:23;;;;;;;;;;;;;;;;;;6223851;28;20100;-59
2022/08/28 09:15:04;;;;;;;55.35;23.67;;;;;;;;;;6222710;28;20430;-59
2022/08/28 09:18:12;;;;;;;49.38;21.42;;;;;;;;;;6224413;28;20234;-61
2022/08/28 09:21:26;;;;;;;41.90;18.70;;;;;;;;;;6225183;28;20492;-61
2022/08/28 09:24:32;;;;;;;52.88;22.38;;;;;;;;;;6225953;28;20140;-60
2022/08/28 09:27:33;;;;;;;55.40;23.63;;;;;;;;;;6221010;28;20202;-60
2022/08/28 09:30:36;;;;;;;49.63;23.10;;;;;;;;;;6220583;28;20061;-61
2022/08/28 09:33:47;;;;;;;54.08;24.38;;;;;;;;;;6225557;28;20048;-60
2022/08/28 09:36:48;;;;;;;51.53;24.30;;;;;;;;;;6222203;28;20093;-61
2022/08/28 09:39:49;;;;;;;50.47;23.92;;;;;;;;;;6214466;28;20065;-59
2022/08/28 09:43:26;;;;;;;40.67;21.40;;;;;;;;;;6219867;28;20037;-59
2022/08/28 09:46:29;;;;;;;44.58;22.20;;;;;;;;;;6224872;28;20410;-59
2022/08/28 09:49:29;;;;;;;48.63;22.92;;;;;;;;;;6222700;28;20763;-59
2022/08/28 09:52:30;;;;;;;46.60;22.70;;;;;;;;;;6222654;28;20077;-59
2022/08/28 09:55:55;;;;;;;51.10;23.60;;;;;;;;;;6223580;28;20045;-60
2022/08/28 09:59:00;;;;;;;52.20;25.00;;;;;;;;;;6220900;28;20417;-60
2022/08/28 10:02:19;;;;;;;50.20;24.15;;;;;;;;;;6216084;28;20077;-59
2022/08/28 10:05:35;;;;;;;49.15;23.83;;;;;;;;;;6218029;28;20053;-57
2022/08/28 10:08:38;;;;;;;55.55;24.17;;;;;;;;;;6224528;28;20120;-59
2022/08/28 10:12:05;;;;;;;48.83;23.27;;;;;;;;;;6222231;28;20453;-59
2022/08/28 10:15:21;;;;;;;52.55;25.48;;;;;;;;;;6222288;28;20050;-59
2022/08/28 10:18:28;;;;;;;53.78;24.88;;;;;;;;;;6225626;28;20041;-59
2022/08/28 10:21:34;;;;;;;56.58;26.60;;;;;;;;;;6222537;28;20067;-60
2022/08/28 10:25:08;;;;;;;42.80;22.60;;;;;;;;;;6222855;28;20080;-59
2022/08/28 10:28:34;;;;;;;47.15;24.13;;;;;;;;;;6222625;28;20053;-59
2022/08/28 10:31:53;;;;;;;45.80;23.08;;;;;;;;;;6219289;28;20046;-59
2022/08/28 10:35:03;;;;;;;40.83;21.15;;;;;;;;;;6223070;28;20156;-59
2022/08/28 10:38:18;;;;;;;44.67;21.87;;;;;;;;;;6225657;28;20469;-59
2022/08/28 10:41:25;;;;;;;44.92;23.35;;;;;;;;;;6220847;28;20140;-60
2022/08/28 10:44:54;;;;;;;52.85;24.55;;;;;;;;;;6220717;28;20069;-59
2022/08/28 10:48:05;;;;;;;49.53;23.58;;;;;;;;;;6216393;28;20065;-59
2022/08/28 10:51:14;;;;;;;47.95;24.00;;;;;;;;;;6221889;28;20076;-59
2022/08/28 10:54:29;;;;;;;45.35;23.20;;;;;;;;;;6202521;28;20049;-59
2022/08/28 10:57:38;;;;;;;44.85;22.52;;;;;;;;;;6222732;28;20105;-59
2022/08/28 11:00:41;;;;;;;42.95;22.58;;;;;;;;;;6221407;28;20068;-59
2022/08/28 11:03:46;;;;;;;45.28;24.60;;;;;;;;;;6230706;28;20037;-58
2022/08/28 11:06:55;;;;;;;50.13;25.08;;;;;;;;;;6219108;28;20053;-59
2022/08/28 11:10:15;;;;;;;45.95;25.20;;;;;;;;;;6225296;28;20845;-58
2022/08/28 11:14:05;;;;;;;52.88;26.02;;;;;;;;;;6224862;28;20699;-57
2022/08/28 11:17:08;;;;;;;46.55;25.48;;;;;;;;;;6206552;28;20054;-59
2022/08/28 11:20:23;;;;;;;51.00;26.67;;;;;;;;;;6221350;28;20061;-59
2022/08/28 11:23:35;;;;;;;51.83;27.42;;;;;;;;;;6225338;28;20041;-57
2022/08/28 11:27:06;;;;;;;52.13;27.05;;;;;;;;;;6227454;28;20045;-59
2022/08/28 11:30:10;;;;;;;60.75;29.42;;;;;;;;;;6225923;28;20046;-58
2022/08/28 11:33:32;;;;;;;57.10;29.08;;;;;;;;;;6226798;28;20064;-58
2022/08/28 11:36:32;;;;;;;64.30;31.65;;;;;;;;;;6222728;28;20050;-56
2022/08/28 11:39:33;;;;;;;56.93;29.43;;;;;;;;;;6227292;28;20084;-58
2022/08/28 11:42:35;;;;;;;70.23;33.63;;;;;;;;;;6227538;28;20057;-58
2022/08/28 11:45:42;;;;;;;61.60;30.08;;;;;;;;;;6221727;28;20141;-60
2022/08/28 11:48:47;;;;;;;59.38;31.13;;;;;;;;;;6228764;28;20416;-61
2022/08/28 11:51:54;;;;;;;60.13;30.90;;;;;;;;;;6222802;28;20527;-55
2022/08/28 11:55:13;;;;;;;97.82;46.20;;;;;;;;;;6225043;28;20140;-57
2022/08/28 11:58:39;;;;;;;70.25;32.85;;;;;;;;;;6224960;28;20181;-54
2022/08/28 12:01:40;;;;;;;62.45;31.20;;;;;;;;;;6225602;28;20583;-56
2022/08/28 12:04:43;;;;;;;76.60;35.95;;;;;;;;;;6224068;28;21043;-55
2022/08/28 12:07:46;;;;;;;74.13;36.50;;;;;;;;;;6223284;28;20125;-57
2022/08/28 12:10:51;;;;;;;70.38;30.40;;;;;;;;;;6223603;28;20071;-57
2022/08/28 12:13:52;;;;;;;59.53;30.80;;;;;;;;;;6226288;28;20057;-56
2022/08/28 12:17:16;;;;;;;72.50;36.80;;;;;;;;;;6225266;28;20462;-57
2022/08/28 12:20:22;;;;;;;73.97;35.78;;;;;;;;;;6222493;28;20089;-57
2022/08/28 12:23:30;;;;;;;61.35;30.98;;;;;;;;;;6227034;28;20140;-56
2022/08/28 12:26:38;;;;;;;59.97;31.08;;;;;;;;;;6231353;28;20061;-57
2022/08/28 12:29:49;;;;;;;68.05;34.10;;;;;;;;;;6230736;28;20476;-57
2022/08/28 12:32:58;;;;;;;64.97;32.08;;;;;;;;;;6233204;28;20037;-58
2022/08/28 12:36:02;;;;;;;68.90;32.85;;;;;;;;;;6235131;28;20594;-56
2022/08/28 12:39:02;;;;;;;61.90;31.55;;;;;;;;;;6235815;28;20083;-58
2022/08/28 12:42:03;;;;;;;73.00;36.83;;;;;;;;;;6230957;28;20064;-57
2022/08/28 12:45:07;;;;;;;46.83;24.43;;;;;;;;;;6234717;28;20064;-57
2022/08/28 12:48:20;;;;;;;52.35;27.13;;;;;;;;;;6232873;28;20056;-57
2022/08/28 12:51:33;;;;;;;51.78;25.00;;;;;;;;;;6229835;28;20056;-57
2022/08/28 12:54:34;;;;;;;43.38;22.17;;;;;;;;;;6233147;28;20149;-56
2022/08/28 12:57:34;;;;;;;49.67;22.20;;;;;;;;;;6233289;28;20485;-56
2022/08/28 13:00:35;;;;;;;44.10;22.30;;;;;;;;;;6231467;28;20403;-57
2022/08/28 13:03:48;;;;;;;42.07;20.33;;;;;;;;;;6225584;28;20041;-56
2022/08/28 13:06:57;;;;;;;38.90;18.92;;;;;;;;;;6232325;28;20049;-54
2022/08/28 13:10:03;;;;;;;46.70;23.23;;;;;;;;;;6231330;28;20057;-55
2022/08/28 13:13:09;;;;;;;46.13;20.90;;;;;;;;;;6232026;28;20063;-55
2022/08/28 13:16:12;;;;;;;35.97;15.40;;;;;;;;;;6232356;28;20405;-54
2022/08/28 13:19:28;;;;;;;27.63;13.18;;;;;;;;;;6233597;28;20152;-56
2022/08/28 13:22:37;;;;;;;24.40;11.70;;;;;;;;;;6227312;28;20693;-59
2022/08/28 13:25:37;;;;;;;28.02;12.15;;;;;;;;;;6232367;28;20471;-56
2022/08/28 13:28:41;;;;;;;25.47;11.23;;;;;;;;;;6233137;28;20088;-56
2022/08/28 13:31:43;;;;;;;25.08;10.85;;;;;;;;;;6228026;28;20564;-57
2022/08/28 13:35:01;;;;;;;24.92;10.55;;;;;;;;;;6224305;28;20091;-56
2022/08/28 13:38:07;;;;;;;24.58;10.93;;;;;;;;;;6226240;28;20509;-56
2022/08/28 13:41:08;;;;;;;33.38;14.20;;;;;;;;;;6227024;28;20060;-56
2022/08/28 13:44:28;;;;;;;26.23;12.77;;;;;;;;;;6224764;28;20500;-54
2022/08/28 13:47:28;;;;;;;29.55;13.40;;;;;;;;;;6220097;28;20053;-56
2022/08/28 13:50:30;;;;;;;32.17;15.30;;;;;;;;;;6216640;28;20523;-57
2022/08/28 13:53:31;;;;;;;37.22;15.57;;;;;;;;;;6224884;28;20547;-57
2022/08/28 13:56:31;;;;;;;38.05;16.05;;;;;;;;;;6219781;28;20053;-57
2022/08/28 13:59:33;;;;;;;35.77;15.50;;;;;;;;;;6222644;28;20068;-58
2022/08/28 14:05:55;;;;;;;34.70;15.27;;;;;;;;;;6221282;28;20099;-57
2022/08/28 14:08:56;;;;;;;35.07;16.10;;;;;;;;;;6221469;28;20050;-58
2022/08/28 14:11:57;;;;;;;33.00;15.10;;;;;;;;;;6220108;28;20063;-58
2022/08/28 14:14:57;;;;;;;31.17;15.77;;;;;;;;;;6220320;28;20050;-58
2022/08/28 14:17:58;;;;;;;38.07;17.30;;;;;;;;;;6221865;28;20069;-56
2022/08/28 14:20:59;;;;;;;38.97;16.80;;;;;;;;;;6218313;28;20049;-57
2022/08/28 14:24:00;;;;;;;39.10;18.13;;;;;;;;;;6223876;28;20053;-57
2022/08/28 14:27:01;;;;;;;38.70;17.95;;;;;;;;;;6222940;28;20056;-57
2022/08/28 14:30:04;;;;;;;35.63;17.77;;;;;;;;;;6219215;28;20057;-58
2022/08/28 14:33:05;;;;;;;39.20;19.70;;;;;;;;;;6222669;28;20205;-57
2022/08/28 14:36:05;;;;;;;35.73;18.23;;;;;;;;;;6226738;28;20045;-56
2022/08/28 14:39:08;;;;;;;37.20;19.03;;;;;;;;;;6221433;28;20049;-57
2022/08/28 14:42:09;;;;;;;36.83;19.63;;;;;;;;;;6221130;28;20427;-58
2022/08/28 14:45:10;;;;;;;37.10;19.20;;;;;;;;;;6222097;28;20231;-58
2022/08/28 14:48:11;;;;;;;40.87;20.23;;;;;;;;;;6221179;28;20037;-58
2022/08/28 14:51:13;;;;;;;42.00;19.15;;;;;;;;;;6220523;28;20060;-57
2022/08/28 14:54:15;;;;;;;;;;;;;;;;;;6222642;28;20148;-58
2022/08/28 14:57:17;;;;;;;58.55;29.02;;;;;;;;;;6222870;28;21399;-57
2022/08/28 15:00:18;;;;;;;;;;;;;;;;;;6205226;28;20054;-57
2022/08/28 15:03:19;;;;;;;43.17;20.60;;;;;;;;;;6221032;28;20281;-56
2022/08/28 15:06:19;;;;;;;37.07;17.63;;;;;;;;;;6222122;28;20104;-58
2022/08/28 15:09:20;;;;;;;26.57;14.10;;;;;;;;;;6219969;28;20080;-57
2022/08/28 15:12:20;;;;;;;19.33;11.17;;;;;;;;;;6217474;28;20053;-58
2022/08/28 15:15:21;;;;;;;19.10;10.27;;;;;;;;;;6223451;28;20065;-57
2022/08/28 15:18:21;;;;;;;20.23;10.87;;;;;;;;;;6225023;28;20053;-57
2022/08/28 15:21:26;;;;;;;19.43;9.53;;;;;;;;;;6226196;28;20052;-57
2022/08/28 15:24:29;;;;;;;20.95;11.32;;;;;;;;;;6229007;28;21060;-56
2022/08/28 15:27:31;;;;;;;25.02;11.10;;;;;;;;;;6227371;28;20661;-57
2022/08/28 15:30:32;;;;;;;23.02;11.27;;;;;;;;;;6225618;28;20813;-56
2022/08/28 15:33:33;;;;;;;21.45;11.07;;;;;;;;;;6229790;28;20045;-57
2022/08/28 15:36:35;;;;;;;23.67;10.93;;;;;;;;;;6229142;28;20046;-55
2022/08/28 15:42:55;;;;;;;26.00;12.35;;;;;;;;;;6224591;28;20045;-56
2022/08/28 15:45:56;;;;;;;25.80;13.30;;;;;;;;;;6222086;28;20168;-58
2022/08/28 15:48:57;;;;;;;31.97;14.03;;;;;;;;;;6223015;28;20535;-57
2022/08/28 15:51:58;;;;;;;27.70;13.20;;;;;;;;;;6221020;28;20042;-58
2022/08/28 15:54:58;;;;;;;24.53;11.87;;;;;;;;;;6226034;28;20286;-57
2022/08/28 15:57:59;;;;;;;27.73;12.43;;;;;;;;;;6229694;28;20076;-61
2022/08/28 16:01:00;;;;;;;30.47;13.40;;;;;;;;;;6231668;28;20511;-58
2022/08/28 16:04:01;;;;;;;30.50;14.80;;;;;;;;;;6235519;28;20164;-57
2022/08/28 16:07:01;;;;;;;27.43;14.10;;;;;;;;;;6235168;28;20045;-57
2022/08/28 16:10:05;;;;;;;26.70;13.53;;;;;;;;;;6231448;28;20547;-58
2022/08/28 16:13:06;;;;;;;30.75;14.10;;;;;;;;;;6233419;28;20367;-57
2022/08/28 16:16:07;;;;;;;30.23;14.30;;;;;;;;;;6229821;28;20550;-58
2022/08/28 16:19:07;;;;;;;28.87;14.10;;;;;;;;;;6230694;28;20060;-57
2022/08/28 16:22:09;;;;;;;30.67;14.47;;;;;;;;;;6227595;28;20053;-58
2022/08/28 16:25:11;;;;;;;;;;;;;;;;;;6236126;28;20440;-58
2022/08/28 16:28:14;;;;;;;30.02;12.20;;;;;;;;;;6233737;28;19929;-57
2022/08/28 16:31:14;;;;;;;25.30;12.77;;;;;;;;;;6231499;28;20103;-58
2022/08/28 16:34:15;;;;;;;28.27;12.27;;;;;;;;;;6233215;28;20037;-59
2022/08/28 16:37:16;;;;;;;25.97;12.90;;;;;;;;;;6233603;28;20050;-57
2022/08/28 16:40:16;;;;;;;30.50;12.60;;;;;;;;;;6230308;28;20045;-55
2022/08/28 16:43:18;;;;;;;27.17;12.27;;;;;;;;;;6231963;28;20056;-58
2022/08/28 16:46:21;;;;;;;27.17;12.85;;;;;;;;;;6235618;28;20124;-57
2022/08/28 16:49:23;;;;;;;22.00;12.38;;;;;;;;;;6236331;28;20500;-60
2022/08/28 16:52:23;;;;;;;;;;;;;;;;;;6232298;28;20137;-61
2022/08/28 16:55:24;;;;;;;24.80;12.65;;;;;;;;;;6235037;28;19929;-61
2022/08/28 16:58:25;;;;;;;33.95;14.88;;;;;;;;;;6237354;28;20051;-61
2022/08/28 17:01:26;;;;;;;36.03;17.83;;;;;;;;;;6233292;28;20053;-60
2022/08/28 17:04:26;;;;;;;28.93;15.50;;;;;;;;;;6236212;28;20045;-62
2022/08/28 17:07:28;;;;;;;32.30;15.47;;;;;;;;;;6236367;28;20048;-59
2022/08/28 17:10:29;;;;;;;50.00;27.20;;;;;;;;;;6230472;28;20110;-60
2022/08/28 17:13:29;;;;;;;26.77;14.63;;;;;;;;;;6231777;28;20049;-61
2022/08/28 17:16:30;;;;;;;28.80;14.87;;;;;;;;;;6232024;28;20100;-62
2022/08/28 17:19:32;;;;;;;30.70;15.70;;;;;;;;;;6229651;28;20056;-61
2022/08/28 17:22:33;;;;;;;;;;;;;;;;;;6232020;28;20405;-57
2022/08/28 17:25:33;;;;;;;26.48;12.70;;;;;;;;;;6231653;28;19929;-59
2022/08/28 17:28:34;;;;;;;27.50;13.67;;;;;;;;;;6231700;28;20055;-57
2022/08/28 17:31:34;;;;;;;32.83;14.20;;;;;;;;;;6228930;28;20041;-59
2022/08/28 17:34:35;;;;;;;28.00;13.70;;;;;;;;;;6232812;28;20124;-59
2022/08/28 17:37:37;;;;;;;36.73;17.77;;;;;;;;;;6231881;28;20055;-59
2022/08/28 17:40:38;;;;;;;35.88;17.02;;;;;;;;;;6229071;28;20048;-60
2022/08/28 17:43:38;;;;;;;31.63;15.70;;;;;;;;;;6230833;28;20045;-60
2022/08/28 17:46:39;;;;;;;29.50;14.20;;;;;;;;;;6230945;28;20037;-60
2022/08/28 17:49:40;;;;;;;54.93;28.60;;;;;;;;;;6228581;28;20033;-60
2022/08/28 17:52:40;;;;;;;30.90;15.17;;;;;;;;;;6229141;28;20034;-59
2022/08/28 17:55:41;;;;;;;38.20;19.10;;;;;;;;;;6228017;28;20064;-58
2022/08/28 17:58:41;;;;;;;40.27;19.30;;;;;;;;;;6225634;28;20053;-60
2022/08/28 18:01:43;;;;;;;36.37;19.20;;;;;;;;;;6225353;28;20034;-60